createdAt,value
2023-01-19T00:00:59.959Z,99761.47
2023-01-19T00:03:33.559Z,99773.41
2023-01-19T00:06:09.980Z,99776.25
2023-01-19T00:08:44.857Z,99780.68
2023-01-19T00:11:18.103Z,99787.25
2023-01-19T00:13:51.183Z,99785.93
2023-01-19T00:16:24.094Z,99791.20
2023-01-19T00:18:56.475Z,99794.47
2023-01-19T00:21:28.775Z,99797.05
2023-01-19T00:24:00.986Z,99798.34
2023-01-19T00:26:33.200Z,99795.23
2023-01-19T00:29:06.978Z,99793.91
2023-01-19T00:31:39.841Z,99794.65
2023-01-19T00:34:12.081Z,99789.04
2023-01-19T00:36:44.642Z,99786.28
2023-01-19T00:39:16.958Z,99791.44
2023-01-19T00:42:06.541Z,99794.41
2023-01-19T00:44:38.781Z,99792.89
2023-01-19T00:47:11.011Z,99794.91
2023-01-19T00:49:43.409Z,99794.40
2023-01-19T00:52:15.581Z,99790.60
2023-01-19T00:54:47.767Z,99787.04
2023-01-19T00:57:20.360Z,99782.26
2023-01-19T00:59:52.670Z,99780.37
2023-01-19T01:02:25.050Z,99778.94
2023-01-19T01:04:57.423Z,99774.41
2023-01-19T01:07:30.136Z,99770.48
2023-01-19T01:10:02.333Z,99766.48
2023-01-19T01:12:34.545Z,99763.05
2023-01-19T01:15:09.115Z,99763.13
2023-01-19T01:17:47.346Z,99765.02
2023-01-19T01:20:22.570Z,99760.30
2023-01-19T01:22:56.747Z,99764.98
2023-01-19T01:25:37.609Z,99764.92
2023-01-19T01:28:11.483Z,99763.70
2023-01-19T01:30:44.205Z,99767.83
2023-01-19T01:33:16.440Z,99761.55
2023-01-19T01:36:10.258Z,99760.93
2023-01-19T01:38:42.843Z,99764.81
2023-01-19T01:41:15.918Z,99755.69
2023-01-19T01:43:51.004Z,99753.63
2023-01-19T01:46:23.665Z,99753.75
2023-01-19T01:49:01.906Z,99752.66
2023-01-19T01:51:39.794Z,99756.54
2023-01-19T01:54:18.026Z,99756.41
2023-01-19T01:56:52.720Z,99751.61
2023-01-19T01:59:28.472Z,99751.45
2023-01-19T02:02:21.789Z,99750.25
2023-01-19T02:04:59.970Z,99747.02
2023-01-19T02:07:56.514Z,99747.08
2023-01-19T02:10:46.251Z,99734.69
2023-01-19T02:13:19.762Z,99730.09
2023-01-19T02:15:53.864Z,99730.88
2023-01-19T02:18:29.051Z,99730.21
2023-01-19T02:21:10.925Z,99732.67
2023-01-19T02:23:46.462Z,99729.72
2023-01-19T02:26:22.018Z,99730.51
2023-01-19T02:28:58.582Z,99728.98
2023-01-19T02:31:34.149Z,99725.56
2023-01-19T02:34:07.962Z,99723.89
2023-01-19T02:36:44.400Z,99725.13
2023-01-19T02:39:20.505Z,99731.48
2023-01-19T02:41:56.091Z,99738.04
2023-01-19T02:44:31.290Z,99733.92
2023-01-19T02:47:05.337Z,99733.12
2023-01-19T02:49:37.843Z,99731.31
2023-01-19T02:52:16.556Z,99736.80
2023-01-19T02:55:00.373Z,99737.06
2023-01-19T02:57:53.961Z,99734.88
2023-01-19T03:00:38.456Z,99732.77
2023-01-19T03:03:27.205Z,99733.52
2023-01-19T03:06:06.818Z,99731.56
2023-01-19T03:08:49.615Z,99727.09
2023-01-19T03:11:22.041Z,99724.63
2023-01-19T03:14:00.977Z,99720.04
2023-01-19T03:16:40.960Z,99719.55
2023-01-19T03:19:20.274Z,99719.18
2023-01-19T03:21:56.620Z,99724.02
2023-01-19T03:24:36.901Z,99723.39
2023-01-19T03:27:13.401Z,99730.26
2023-01-19T03:29:52.942Z,99734.72
2023-01-19T03:32:30.320Z,99743.23
2023-01-19T03:35:06.994Z,99745.30
2023-01-19T03:37:42.375Z,99741.24
2023-01-19T03:40:15.830Z,99742.48
2023-01-19T03:42:48.764Z,99748.88
2023-01-19T03:45:22.766Z,99754.12
2023-01-19T03:47:55.935Z,99758.08
2023-01-19T03:50:30.781Z,99758.73
2023-01-19T03:53:10.686Z,99762.27
2023-01-19T03:55:46.176Z,99760.96
2023-01-19T03:58:18.840Z,99760.05
2023-01-19T04:00:51.120Z,99761.77
2023-01-19T04:03:23.442Z,99758.77
2023-01-19T04:05:57.685Z,99761.54
2023-01-19T04:08:29.978Z,99765.27
2023-01-19T04:11:02.502Z,99761.41
2023-01-19T04:13:35.072Z,99761.33
2023-01-19T04:16:09.055Z,99761.16
2023-01-19T04:18:42.286Z,99764.52
2023-01-19T04:21:14.530Z,99769.92
2023-01-19T04:23:46.965Z,99775.17
2023-01-19T04:26:19.246Z,99774.89
2023-01-19T04:28:51.653Z,99772.21
2023-01-19T04:31:23.888Z,99768.24
2023-01-19T04:33:56.978Z,99766.75
2023-01-19T04:36:29.409Z,99766.92
2023-01-19T04:39:01.693Z,99763.15
2023-01-19T04:41:33.921Z,99762.30
2023-01-19T04:44:06.577Z,99767.21
2023-01-19T04:46:38.862Z,99765.17
2023-01-19T04:49:11.654Z,99769.73
2023-01-19T04:51:43.917Z,99777.91
2023-01-19T04:54:16.484Z,99774.96
2023-01-19T04:56:48.907Z,99781.84
2023-01-19T04:59:21.674Z,99780.77
2023-01-19T05:01:54.059Z,99786.61
2023-01-19T05:04:26.909Z,99787.83
2023-01-19T05:06:59.454Z,99781.98
2023-01-19T05:09:31.672Z,99776.98
2023-01-19T05:12:03.901Z,99778.56
2023-01-19T05:14:36.111Z,99785.40
2023-01-19T05:17:08.619Z,99784.80
2023-01-19T05:19:41.161Z,99785.48
2023-01-19T05:22:14.119Z,99796.08
2023-01-19T05:24:46.293Z,99794.23
2023-01-19T05:27:18.664Z,99793.63
2023-01-19T05:29:50.862Z,99793.75
2023-01-19T05:32:23.084Z,99795.36
2023-01-19T05:34:55.391Z,99802.91
2023-01-19T05:37:27.788Z,99810.58
2023-01-19T05:40:00.154Z,99809.93
2023-01-19T05:42:33.023Z,99805.98
2023-01-19T05:45:05.713Z,99812.91
2023-01-19T05:47:37.993Z,99831.45
2023-01-19T05:50:11.988Z,99830.42
2023-01-19T05:52:44.769Z,99838.23
2023-01-19T05:55:17.480Z,99843.46
2023-01-19T05:57:49.837Z,99844.76
2023-01-19T06:00:22.968Z,99842.14
2023-01-19T06:02:55.364Z,99843.40
2023-01-19T06:05:27.683Z,99847.73
2023-01-19T06:08:00.664Z,99850.89
2023-01-19T06:10:32.836Z,99851.16
2023-01-19T06:13:05.242Z,99856.42
2023-01-19T06:15:37.710Z,99860.48
2023-01-19T06:18:10.128Z,99861.09
2023-01-19T06:20:42.393Z,99856.04
2023-01-19T06:23:14.846Z,99858.55
2023-01-19T06:25:47.149Z,99867.02
2023-01-19T06:28:19.890Z,99864.71
2023-01-19T06:30:53.597Z,99873.50
2023-01-19T06:33:27.781Z,99870.46
2023-01-19T06:36:00.100Z,99867.45
2023-01-19T06:38:33.062Z,99867.45
2023-01-19T06:41:05.747Z,99870.04
2023-01-19T06:43:38.046Z,99869.88
2023-01-19T06:46:10.363Z,99870.64
2023-01-19T06:48:42.616Z,99872.73
2023-01-19T06:51:15.063Z,99877.05
2023-01-19T06:53:47.902Z,99880.65
2023-01-19T06:56:20.264Z,99883.27
2023-01-19T06:58:53.392Z,99873.58
2023-01-19T07:01:25.792Z,99869.48
2023-01-19T07:03:58.171Z,99868.81
2023-01-19T07:06:30.397Z,99875.11
2023-01-19T07:09:07.195Z,99872.40
2023-01-19T07:11:39.405Z,99869.70
2023-01-19T07:14:11.986Z,99868.45
2023-01-19T07:16:44.340Z,99861.67
2023-01-19T07:19:16.839Z,99859.71
2023-01-19T07:21:49.269Z,99858.92
2023-01-19T07:24:21.968Z,99858.86
2023-01-19T07:26:54.221Z,99853.77
2023-01-19T07:29:26.811Z,99852.19
2023-01-19T07:31:59.117Z,99850.46
2023-01-19T07:34:31.598Z,99845.71
2023-01-19T07:37:03.920Z,99848.14
2023-01-19T07:39:36.873Z,99849.29
2023-01-19T07:42:09.889Z,99851.13
2023-01-19T07:44:42.177Z,99849.48
2023-01-19T07:47:14.505Z,99849.39
2023-01-19T07:49:46.786Z,99844.15
2023-01-19T07:52:19.350Z,99843.31
2023-01-19T07:54:51.828Z,99843.50
2023-01-19T07:57:24.260Z,99842.76
2023-01-19T07:59:56.649Z,99838.84
2023-01-19T08:02:28.969Z,99842.33
2023-01-19T08:05:01.236Z,99842.48
2023-01-19T08:07:34.097Z,99849.41
2023-01-19T08:10:07.004Z,99850.31
2023-01-19T08:12:39.290Z,99853.22
2023-01-19T08:15:13.138Z,99855.59
2023-01-19T08:17:45.544Z,99860.96
2023-01-19T08:20:18.820Z,99863.80
2023-01-19T08:22:59.991Z,99866.48
2023-01-19T08:25:38.360Z,99864.33
2023-01-19T08:28:12.428Z,99866.45
2023-01-19T08:30:45.291Z,99869.83
2023-01-19T08:33:17.971Z,99866.40
2023-01-19T08:35:53.104Z,99873.14
2023-01-19T08:38:25.460Z,99872.23
2023-01-19T08:40:57.709Z,99870.89
2023-01-19T08:43:30.122Z,99879.09
2023-01-19T08:46:03.807Z,99875.56
2023-01-19T08:48:38.688Z,99876.70
2023-01-19T08:51:12.239Z,99877.19
2023-01-19T08:53:45.019Z,99876.58
2023-01-19T08:56:20.349Z,99872.95
2023-01-19T08:59:03.500Z,99870.69
2023-01-19T09:01:41.586Z,99868.58
2023-01-19T09:04:13.977Z,99868.77
2023-01-19T09:06:46.297Z,99868.77
2023-01-19T09:09:18.773Z,99864.84
2023-01-19T09:11:51.106Z,99856.94
2023-01-19T09:14:23.364Z,99862.42
2023-01-19T09:16:56.362Z,99856.48
2023-01-19T09:19:28.752Z,99860.02
2023-01-19T09:22:01.066Z,99854.95
2023-01-19T09:24:35.135Z,99842.93
2023-01-19T09:27:07.571Z,99838.23
2023-01-19T09:29:39.853Z,99838.49
2023-01-19T09:32:12.190Z,99850.78
2023-01-19T09:34:44.662Z,99836.83
2023-01-19T09:37:17.394Z,99828.90
2023-01-19T09:39:50.079Z,99821.70
2023-01-19T09:42:32.516Z,99812.45
2023-01-19T09:45:06.481Z,99812.71
2023-01-19T09:47:40.280Z,99814.54
2023-01-19T09:50:19.398Z,99812.57
2023-01-19T09:53:01.538Z,99805.61
2023-01-19T09:55:34.281Z,99808.15
2023-01-19T09:58:11.255Z,99802.02
2023-01-19T10:00:47.884Z,99805.75
2023-01-19T10:03:21.464Z,99796.96
2023-01-19T10:06:01.213Z,99791.41
2023-01-19T10:08:40.368Z,99786.51
2023-01-19T10:11:31.851Z,99780.06
2023-01-19T10:14:17.906Z,99776.98
2023-01-19T10:17:00.166Z,99783.95
2023-01-19T10:19:38.049Z,99785.30
2023-01-19T10:22:21.670Z,99784.17
2023-01-19T10:24:57.358Z,99779.14
2023-01-19T10:27:34.326Z,99775.73
2023-01-19T10:30:10.299Z,99775.84
2023-01-19T10:32:44.610Z,99769.75
2023-01-19T10:35:24.563Z,99764.75
2023-01-19T10:38:00.240Z,99765.20
2023-01-19T10:40:34.715Z,99762.36
2023-01-19T10:43:51.055Z,99757.84
2023-01-19T10:46:34.773Z,99748.38
2023-01-19T10:49:08.348Z,99755.84
2023-01-19T10:51:49.924Z,99753.64
2023-01-19T10:54:24.463Z,99751.49
2023-01-19T10:56:59.487Z,99747.20
2023-01-19T10:59:38.310Z,99740.13
2023-01-19T11:02:21.227Z,99732.45
2023-01-19T11:04:56.281Z,99738.83
2023-01-19T11:07:32.687Z,99736.29
2023-01-19T11:10:25.092Z,99735.30
2023-01-19T11:13:04.200Z,99732.80
2023-01-19T11:15:43.939Z,99734.14
2023-01-19T11:18:32.975Z,99741.08
2023-01-19T11:21:08.384Z,99735.23
2023-01-19T11:23:46.703Z,99737.72
2023-01-19T11:26:29.103Z,99742.34
2023-01-19T11:29:04.510Z,99739.61
2023-01-19T11:31:39.338Z,99732.66
2023-01-19T11:34:33.178Z,99730.08
2023-01-19T11:37:25.026Z,99744.98
2023-01-19T11:39:59.949Z,99740.21
2023-01-19T11:42:36.631Z,99740.22
2023-01-19T11:45:16.620Z,99742.10
2023-01-19T11:47:52.611Z,99744.32
2023-01-19T11:50:31.042Z,99739.33
2023-01-19T11:53:07.378Z,99737.15
2023-01-19T11:55:48.279Z,99740.74
2023-01-19T11:58:21.797Z,99738.40
2023-01-19T12:00:58.180Z,99736.77
2023-01-19T12:03:34.283Z,99737.11
2023-01-19T12:06:13.199Z,99734.02
2023-01-19T12:08:49.342Z,99733.44
2023-01-19T12:11:24.627Z,99726.40
2023-01-19T12:13:57.052Z,99723.83
2023-01-19T12:16:33.002Z,99728.13
2023-01-19T12:19:12.379Z,99722.46
2023-01-19T12:21:48.190Z,99726.13
2023-01-19T12:24:24.833Z,99718.09
2023-01-19T12:27:00.095Z,99716.31
2023-01-19T12:29:36.045Z,99718.27
2023-01-19T12:32:37.005Z,99724.42
2023-01-19T12:35:47.369Z,99723.86
2023-01-19T12:38:41.464Z,99728.85
2023-01-19T12:41:24.750Z,99727.40
2023-01-19T12:44:34.284Z,99732.85
2023-01-19T12:50:15.210Z,99733.73
2023-01-19T12:52:57.229Z,99739.33
2023-01-19T12:55:33.398Z,99730.55
2023-01-19T12:58:08.583Z,99734.12
2023-01-19T13:00:44.017Z,99731.86
2023-01-19T13:03:48.262Z,99739.33
2023-01-19T13:06:20.544Z,99738.73
2023-01-19T13:09:03.185Z,99737.01
2023-01-19T13:11:35.533Z,99740.04
2023-01-19T13:14:36.519Z,99740.83
2023-01-19T13:17:27.282Z,99746.21
2023-01-19T13:20:29.648Z,99748.05
2023-01-19T13:23:20.118Z,99747.89
2023-01-19T13:26:01.433Z,99753.59
2023-01-19T13:28:40.703Z,99753.66
2023-01-19T13:31:14.399Z,99752.86
2023-01-19T13:33:52.530Z,99752.56
2023-01-19T13:36:30.529Z,99750.64
2023-01-19T13:39:06.598Z,99755.05
2023-01-19T13:41:42.490Z,99753.91
2023-01-19T13:44:20.865Z,99752.73
2023-01-19T13:46:54.699Z,99756.04
2023-01-19T13:49:31.861Z,99748.98
2023-01-19T13:52:17.080Z,99749.08
2023-01-19T13:54:54.203Z,99748.02
2023-01-19T13:57:30.789Z,99746.77
2023-01-19T14:00:19.167Z,99749.48
2023-01-19T14:03:14.933Z,99744.73
2023-01-19T14:05:51.401Z,99744.91
2023-01-19T14:08:25.821Z,99746.46
2023-01-19T14:11:05.109Z,99743.73
2023-01-19T14:13:41.761Z,99750.31
2023-01-19T14:16:18.655Z,99749.91
2023-01-19T14:19:02.561Z,99749.79
2023-01-19T14:21:42.738Z,99751.79
2023-01-19T14:24:20.586Z,99744.73
2023-01-19T14:26:54.874Z,99750.50
2023-01-19T14:29:32.603Z,99742.20
2023-01-19T14:32:17.434Z,99739.95
2023-01-19T14:34:51.883Z,99746.88
2023-01-19T14:37:27.322Z,99743.10
2023-01-19T14:40:04.872Z,99744.16
2023-01-19T14:42:39.842Z,99739.14
2023-01-19T14:45:20.905Z,99736.29
2023-01-19T14:47:59.706Z,99728.20
2023-01-19T14:50:35.805Z,99727.62
2023-01-19T14:53:16.267Z,99721.78
2023-01-19T14:55:51.002Z,99732.39
2023-01-19T14:58:26.425Z,99732.91
2023-01-19T15:00:58.794Z,99732.30
2023-01-19T15:03:44.259Z,99734.70
2023-01-19T15:06:16.869Z,99734.90
2023-01-19T15:08:53.428Z,99739.73
2023-01-19T15:11:30.414Z,99742.13
2023-01-19T15:14:03.660Z,99735.95
2023-01-19T15:16:37.265Z,99740.30
2023-01-19T15:19:11.075Z,99735.48
2023-01-19T15:21:45.381Z,99739.53
2023-01-19T15:24:18.170Z,99744.95
2023-01-19T15:26:50.685Z,99743.55
2023-01-19T15:29:27.264Z,99745.45
2023-01-19T15:31:59.605Z,99748.01
2023-01-19T15:34:31.964Z,99750.98
2023-01-19T15:37:04.533Z,99754.66
2023-01-19T15:39:36.988Z,99754.25
2023-01-19T15:42:14.140Z,99754.27
2023-01-19T15:44:46.563Z,99759.20
2023-01-19T15:47:18.847Z,99759.73
2023-01-19T15:49:51.081Z,99760.97
2023-01-19T15:52:23.473Z,99762.56
2023-01-19T15:54:55.719Z,99772.47
2023-01-19T15:57:28.161Z,99775.48
2023-01-19T16:00:00.462Z,99773.08
2023-01-19T16:02:33.505Z,99773.68
2023-01-19T16:05:06.171Z,99773.23
2023-01-19T16:07:38.505Z,99776.91
2023-01-19T16:10:13.057Z,99777.96
2023-01-19T16:12:46.704Z,99780.67
2023-01-19T16:15:19.892Z,99781.61
2023-01-19T16:17:54.640Z,99780.75
2023-01-19T16:20:26.909Z,99781.31
2023-01-19T16:23:13.875Z,99785.44
2023-01-19T16:25:55.995Z,99779.09
2023-01-19T16:28:28.775Z,99781.73
2023-01-19T16:31:01.157Z,99785.47
2023-01-19T16:33:33.399Z,99789.45
2023-01-19T16:36:23.750Z,99796.25
2023-01-19T16:38:59.650Z,99797.52
2023-01-19T16:41:30.364Z,99802.13
2023-01-19T16:44:02.659Z,99802.64
2023-01-19T16:46:38.487Z,99803.73
2023-01-19T16:49:15.986Z,99808.30
2023-01-19T16:51:49.057Z,99808.06
2023-01-19T16:54:26.033Z,99812.04
2023-01-19T16:56:59.428Z,99813.13
2023-01-19T16:59:31.774Z,99813.66
2023-01-19T17:02:04.474Z,99808.85
2023-01-19T17:04:37.122Z,99808.11
2023-01-19T17:07:09.545Z,99815.11
2023-01-19T17:09:42.031Z,99816.95
2023-01-19T17:12:14.421Z,99812.31
2023-01-19T17:14:47.620Z,99818.86
2023-01-19T17:17:19.992Z,99822.12
2023-01-19T17:19:52.350Z,99820.90
2023-01-19T17:22:24.905Z,99820.75
2023-01-19T17:24:57.373Z,99822.20
2023-01-19T17:27:29.653Z,99820.08
2023-01-19T17:30:01.860Z,99822.41
2023-01-19T17:32:33.892Z,99822.73
2023-01-19T17:35:07.186Z,99820.88
2023-01-19T17:37:39.540Z,99822.13
2023-01-19T17:40:14.004Z,99820.40
2023-01-19T17:42:46.627Z,99822.70
2023-01-19T17:45:19.177Z,99819.45
2023-01-19T17:47:52.818Z,99821.21
2023-01-19T17:50:25.162Z,99827.19
2023-01-19T17:52:58.467Z,99827.13
2023-01-19T17:55:30.783Z,99830.52
2023-01-19T17:58:03.178Z,99827.77
2023-01-19T18:00:35.565Z,99825.50
2023-01-19T18:03:07.866Z,99825.25
2023-01-19T18:05:40.154Z,99826.10
2023-01-19T18:08:12.520Z,99831.51
2023-01-19T18:10:44.734Z,99831.75
2023-01-19T18:13:17.037Z,99826.88
2023-01-19T18:15:49.457Z,99824.10
2023-01-19T18:18:21.810Z,99821.86
2023-01-19T18:20:54.438Z,99824.16
2023-01-19T18:23:26.607Z,99827.34
2023-01-19T18:26:03.277Z,99830.45
2023-01-19T18:28:35.557Z,99836.63
2023-01-19T18:31:10.302Z,99841.70
2023-01-19T18:33:43.431Z,99845.41
2023-01-19T18:36:16.345Z,99846.79
2023-01-19T18:38:50.136Z,99851.94
2023-01-19T18:41:23.748Z,99851.17
2023-01-19T18:43:59.832Z,99851.25
2023-01-19T18:46:32.210Z,99861.41
2023-01-19T18:49:06.828Z,99873.04
2023-01-19T18:51:40.625Z,99871.30
2023-01-19T18:54:14.003Z,99885.00
2023-01-19T18:56:46.257Z,99898.73
2023-01-19T18:59:18.593Z,99904.00
2023-01-19T19:01:50.970Z,99905.56
2023-01-19T19:04:23.515Z,99903.40
2023-01-19T19:06:55.883Z,99902.71
2023-01-19T19:09:28.306Z,99903.91
2023-01-19T19:12:00.807Z,99905.45
2023-01-19T19:14:33.290Z,99908.92
2023-01-19T19:17:05.557Z,99913.27
2023-01-19T19:19:37.876Z,99922.59
2023-01-19T19:22:10.309Z,99931.04
2023-01-19T19:24:42.740Z,99934.95
2023-01-19T19:27:15.124Z,99941.58
2023-01-19T19:29:48.983Z,99938.08
2023-01-19T19:32:21.560Z,99931.60
2023-01-19T19:34:55.865Z,99927.78
2023-01-19T19:37:29.564Z,99931.90
2023-01-19T19:40:01.890Z,99933.56
2023-01-19T19:42:36.686Z,99937.92
2023-01-19T19:45:10.985Z,99935.23
2023-01-19T19:47:44.076Z,99938.33
2023-01-19T19:50:16.815Z,99947.05
2023-01-19T19:52:49.086Z,99952.48
2023-01-19T19:55:21.585Z,99955.51
2023-01-19T19:57:54.993Z,99955.86
2023-01-19T20:00:27.600Z,99959.35
2023-01-19T20:03:00.041Z,99968.10
2023-01-19T20:05:32.506Z,99964.08
2023-01-19T20:08:04.724Z,99964.17
2023-01-19T20:10:37.632Z,99966.57
2023-01-19T20:13:10.024Z,99960.69
2023-01-19T20:15:42.594Z,99969.64
2023-01-19T20:18:14.904Z,99975.36
2023-01-19T20:20:47.304Z,99978.39
2023-01-19T20:23:20.143Z,99971.49
2023-01-19T20:25:52.411Z,99976.35
2023-01-19T20:28:24.842Z,99969.11
2023-01-19T20:30:57.071Z,99968.73
2023-01-19T20:33:29.384Z,99973.80
2023-01-19T20:36:01.658Z,99973.73
2023-01-19T20:38:34.284Z,99971.73
2023-01-19T20:41:08.269Z,99967.03
2023-01-19T20:43:40.911Z,99978.32
2023-01-19T20:46:13.689Z,99989.09
2023-01-19T20:48:50.866Z,99993.73
2023-01-19T20:51:24.372Z,100002.23
2023-01-19T20:53:56.612Z,100002.66
2023-01-19T20:56:28.869Z,99998.11
2023-01-19T20:59:02.898Z,99999.55
2023-01-19T21:01:35.474Z,100007.94
2023-01-19T21:04:08.440Z,100008.04
2023-01-19T21:06:42.148Z,100004.65
2023-01-19T21:09:14.798Z,100004.52
2023-01-19T21:11:47.282Z,100000.34
2023-01-19T21:14:19.615Z,100007.02
2023-01-19T21:16:51.918Z,100009.30
2023-01-19T21:19:24.352Z,100014.22
2023-01-19T21:21:56.515Z,100007.50
2023-01-19T21:24:30.624Z,99996.55
2023-01-19T21:27:03.027Z,99997.91
2023-01-19T21:29:35.354Z,100003.27
2023-01-19T21:32:08.426Z,100000.77
2023-01-19T21:34:40.907Z,99991.77
2023-01-19T21:37:13.249Z,99985.09
2023-01-19T21:39:45.705Z,99986.46
2023-01-19T21:42:18.543Z,99982.25
2023-01-19T21:44:51.674Z,99982.70
2023-01-19T21:47:24.001Z,99980.23
2023-01-19T21:49:56.395Z,99987.46
2023-01-19T21:52:28.856Z,99983.83
2023-01-19T21:55:01.125Z,99977.11
2023-01-19T21:57:33.339Z,99974.45
2023-01-19T22:00:06.976Z,99986.08
2023-01-19T22:02:39.462Z,99983.09
2023-01-19T22:05:13.100Z,99984.48
2023-01-19T22:07:45.533Z,99975.64
2023-01-19T22:10:18.588Z,99971.45
2023-01-19T22:12:50.864Z,99975.48
2023-01-19T22:15:23.147Z,99981.83
2023-01-19T22:17:55.430Z,99979.23
2023-01-19T22:20:27.666Z,99971.41
2023-01-19T22:23:00.022Z,99968.61
2023-01-19T22:25:33.438Z,99976.46
2023-01-19T22:28:05.845Z,99971.13
2023-01-19T22:30:38.049Z,99964.83
2023-01-19T22:33:10.366Z,99972.32
2023-01-19T22:35:42.749Z,99975.95
2023-01-19T22:38:15.245Z,99971.46
2023-01-19T22:40:47.538Z,99961.29
2023-01-19T22:43:20.074Z,99965.71
2023-01-19T22:45:52.343Z,99971.27
2023-01-19T22:48:24.631Z,99980.30
2023-01-19T22:50:59.929Z,99970.55
2023-01-19T22:53:33.474Z,99966.52
2023-01-19T22:56:12.869Z,99966.67
2023-01-19T22:58:46.152Z,99962.79
2023-01-19T23:01:20.067Z,99960.29
2023-01-19T23:03:52.964Z,99954.27
2023-01-19T23:06:27.128Z,99965.41
2023-01-19T23:09:01.287Z,99961.50
2023-01-19T23:11:37.049Z,99966.48
2023-01-19T23:14:12.496Z,99973.23
2023-01-19T23:16:47.143Z,99965.59
2023-01-19T23:19:20.376Z,99961.16
2023-01-19T23:21:54.757Z,99963.20
2023-01-19T23:24:27.114Z,99968.52
2023-01-19T23:27:00.543Z,99967.69
2023-01-19T23:29:32.870Z,99964.93
2023-01-19T23:32:05.423Z,99954.80
2023-01-19T23:34:37.750Z,99956.45
2023-01-19T23:37:10.035Z,99960.08
2023-01-19T23:39:42.707Z,99962.98
2023-01-19T23:42:15.084Z,99963.88
2023-01-19T23:44:47.401Z,99958.84
2023-01-19T23:47:19.698Z,99961.55
2023-01-19T23:49:51.904Z,99963.98
2023-01-19T23:52:24.397Z,99954.54
2023-01-19T23:54:56.687Z,99955.73
2023-01-19T23:57:29.032Z,99954.89
